Time;durP1;ratioP1;P1;durP2;ratioP2;P2;SDS_P1;SDS_P2;PMS_P1;PMS_P2;Temp;Humidity;BMP_temperature;BMP_pressure;BME280_temperature;BME280_humidity;BME280_pressure;Samples;Min_cycle;Max_cycle;Signal;HPM_P1;HPM_P2
2022/08/27 00:00:14;;;;;;;;;;;;;;;;;;5074998;28;19932;-61
2022/08/27 00:02:41;;;;;;;;;;;;;;;;;;5075175;28;20003;-61
2022/08/27 00:05:08;;;;;;;;;;;;;;;;;;5075398;28;19978;-61
2022/08/27 00:07:36;;;;;;;;;;;;;;;;;;5075044;28;19925;-61
2022/08/27 00:10:02;;;;;;;;;;;;;;;;;;5074751;28;19932;-60
2022/08/27 00:12:29;;;;;;;;;;;;;;;;;;5075312;28;20446;-61
2022/08/27 00:14:57;;;;;;;;;;;;;;;;;;5075225;28;19940;-61
2022/08/27 00:17:24;;;;;;;;;;;;;;;;;;5093092;22;19929;-75
2022/08/27 00:19:50;;;;;;;;;;;;;;;;;;5075304;28;19967;-74
2022/08/27 00:22:16;;;;;;;;;;;;;;;;;;5075210;28;19975;-76
2022/08/27 00:24:44;;;;;;;;;;;;;;;;;;5075280;28;19970;-74
2022/08/27 00:27:11;;;;;;;;;;;;;;;;;;5074839;28;19977;-74
2022/08/27 00:29:37;;;;;;;;;;;;;;;;;;5075018;28;19964;-74
2022/08/27 00:32:04;;;;;;;;;;;;;;;;;;5075164;28;19979;-75
2022/08/27 00:34:30;;;;;;;;;;;;;;;;;;5075407;28;19951;-75
2022/08/27 00:36:57;;;;;;;;;;;;;;;;;;5075473;28;19974;-75
2022/08/27 00:39:23;;;;;;;;;;;;;;;;;;5075195;28;20379;-74
2022/08/27 00:41:51;;;;;;;;;;;;;;;;;;5075589;28;19924;-75
2022/08/27 00:44:18;;;;;;;;;;;;;;;;;;5075671;28;19968;-75
2022/08/27 00:46:46;;;;;;;;;;;;;;;;;;5074837;28;19924;-75
2022/08/27 00:49:14;;;;;;;;;;;;;;;;;;5074978;28;20003;-75
2022/08/27 00:51:41;;;;;;;;;;;;;;;;;;5074911;28;19974;-75
2022/08/27 00:54:09;;;;;;;;;;;;;;;;;;5074784;28;19959;-75
2022/08/27 00:56:37;;;;;;;;;;;;;;;;;;5074427;28;20019;-75
2022/08/27 00:59:05;;;;;;;;;;;;;;;;;;5074658;28;20425;-75
2022/08/27 01:01:33;;;;;;;;;;;;;;;;;;5065236;28;19982;-77
2022/08/27 01:04:01;;;;;;;;;;;;;;;;;;5054916;28;20011;-74
2022/08/27 01:06:30;;;;;;;;;;;;;;;;;;5054757;28;19925;-74
2022/08/27 01:08:58;;;;;;;;;;;;;;;;;;5054609;28;20003;-75
2022/08/27 01:11:25;;;;;;;;;;;;;;;;;;5054475;28;20049;-75
2022/08/27 01:13:52;;;;;;;;;;;;;;;;;;5054497;28;20032;-75
2022/08/27 01:16:22;;;;;;;;;;;;;;;;;;5054464;28;20019;-75
2022/08/27 01:18:50;;;;;;;;;;;;;;;;;;5054870;28;19924;-75
2022/08/27 01:21:20;;;;;;;;;;;;;;;;;;5054110;28;19970;-76
2022/08/27 01:23:49;;;;;;;;;;;;;;;;;;5054287;28;19932;-75
2022/08/27 01:26:18;;;;;;;;;;;;;;;;;;5054121;28;19925;-75
2022/08/27 01:28:45;;;;;;;;;;;;;;;;;;5054122;28;19929;-75
2022/08/27 01:31:12;;;;;;;;;;;;;;;;;;5054008;28;19978;-75
2022/08/27 01:33:39;;;;;;;;;;;;;;;;;;5053910;28;19968;-75
2022/08/27 01:36:06;;;;;;;;;;;;;;;;;;5053679;28;19967;-75
2022/08/27 01:38:33;;;;;;;;;;;;;;;;;;5053580;28;20024;-75
2022/08/27 01:40:59;;;;;;;;;;;;;;;;;;5053437;28;19925;-75
2022/08/27 01:43:28;;;;;;;;;;;;;;;;;;5054201;28;19971;-75
2022/08/27 01:45:54;;;;;;;;;;;;;;;;;;5053585;28;19928;-75
2022/08/27 01:48:21;;;;;;;;;;;;;;;;;;5052898;28;20007;-75
2022/08/27 01:50:48;;;;;;;;;;;;;;;;;;5053828;28;20008;-74
2022/08/27 01:53:17;;;;;;;;;;;;;;;;;;5055731;28;20636;-75
2022/08/27 01:55:44;;;;;;;;;;;;;;;;;;5055504;28;19967;-74
2022/08/27 01:58:11;;;;;;;;;;;;;;;;;;5053993;28;19971;-75
2022/08/27 02:00:41;;;;;;;;;;;;;;;;;;5054661;28;20008;-75
2022/08/27 02:03:08;;;;;;;;;;;;;;;;;;5073368;28;19971;-74
2022/08/27 02:05:35;;;;;;;;;;;;;;;;;;5073319;28;19966;-75
2022/08/27 02:08:01;;;;;;;;;;;;;;;;;;5072928;28;20018;-75
2022/08/27 02:10:31;;;;;;;;;;;;;;;;;;5072643;28;19966;-74
2022/08/27 02:12:57;;;;;;;;;;;;;;;;;;5073022;28;19924;-75
2022/08/27 02:15:24;;;;;;;;;;;;;;;;;;5073514;28;20027;-75
2022/08/27 02:17:52;;;;;;;;;;;;;;;;;;5072605;28;19963;-75
2022/08/27 02:20:19;;;;;;;;;;;;;;;;;;5072864;28;19931;-74
2022/08/27 02:22:46;;;;;;;;;;;;;;;;;;5073209;28;20007;-75
2022/08/27 02:25:14;;;;;;;;;;;;;;;;;;5073167;28;19959;-75
2022/08/27 02:27:41;;;;;;;;;;;;;;;;;;5073500;28;19935;-76
2022/08/27 02:30:08;;;;;;;;;;;;;;;;;;5073074;28;20412;-75
2022/08/27 02:32:35;;;;;;;;;;;;;;;;;;5073498;28;19950;-75
2022/08/27 02:35:03;;;;;;;;;;;;;;;;;;5073804;28;19959;-75
2022/08/27 02:37:30;;;;;;;;;;;;;;;;;;5073674;28;20015;-76
2022/08/27 02:39:57;;;;;;;;;;;;;;;;;;5073297;28;19940;-74
2022/08/27 02:42:24;;;;;;;;;;;;;;;;;;5073179;28;19978;-75
2022/08/27 02:44:50;;;;;;;;;;;;;;;;;;5073136;28;19925;-75
2022/08/27 02:47:17;;;;;;;;;;;;;;;;;;5073639;28;19967;-76
2022/08/27 02:49:43;;;;;;;;;;;;;;;;;;5072946;28;19974;-74
2022/08/27 02:52:11;;;;;;;;;;;;;;;;;;5073286;28;20327;-75
2022/08/27 02:54:38;;;;;;;;;;;;;;;;;;5073118;28;20421;-75
2022/08/27 02:57:04;;;;;;;;;;;;;;;;;;5072251;28;19967;-74
2022/08/27 02:59:31;;;;;;;;;;;;;;;;;;5071703;28;20492;-74
2022/08/27 03:01:57;;;;;;;;;;;;;;;;;;5059999;28;19929;-75
2022/08/27 03:04:24;;;;;;;;;;;;;;;;;;5052473;28;19995;-74
2022/08/27 03:06:50;;;;;;;;;;;;;;;;;;5052225;28;19979;-76
2022/08/27 03:09:18;;;;;;;;;;;;;;;;;;5051773;28;19925;-75
2022/08/27 03:11:44;;;;;;;;;;;;;;;;;;5052290;28;19980;-75
2022/08/27 03:14:11;;;;;;;;;;;;;;;;;;5052524;28;19968;-75
2022/08/27 03:16:38;;;;;;;;;;;;;;;;;;5051824;28;19925;-75
2022/08/27 03:19:05;;;;;;;;;;;;;;;;;;5052091;28;19970;-74
2022/08/27 03:21:31;;;;;;;;;;;;;;;;;;5052621;28;19931;-75
2022/08/27 03:24:00;;;;;;;;;;;;;;;;;;5052552;28;19960;-75
2022/08/27 03:26:28;;;;;;;;;;;;;;;;;;5052434;28;19925;-76
2022/08/27 03:28:55;;;;;;;;;;;;;;;;;;5052571;28;19983;-75
2022/08/27 03:31:25;;;;;;;;;;;;;;;;;;5052393;28;19987;-76
2022/08/27 03:33:53;;;;;;;;;;;;;;;;;;5052614;28;19925;-75
2022/08/27 03:36:19;;;;;;;;;;;;;;;;;;5052416;28;19924;-75
2022/08/27 03:38:46;;;;;;;;;;;;;;;;;;5051923;28;19982;-75
2022/08/27 03:41:13;;;;;;;;;;;;;;;;;;5051520;28;19932;-76
2022/08/27 03:43:40;;;;;;;;;;;;;;;;;;5052421;28;20268;-76
2022/08/27 03:46:07;;;;;;;;;;;;;;;;;;5052366;28;20038;-75
2022/08/27 03:48:34;;;;;;;;;;;;;;;;;;5052490;28;19925;-75
2022/08/27 03:51:05;;;;;;;;;;;;;;;;;;5053539;28;20012;-75
2022/08/27 03:53:31;;;;;;;;;;;;;;;;;;5054234;28;19953;-75
2022/08/27 03:55:58;;;;;;;;;;;;;;;;;;5053818;28;19924;-75
2022/08/27 03:58:24;;;;;;;;;;;;;;;;;;5053090;28;19924;-75
2022/08/27 04:00:52;;;;;;;;;;;;;;;;;;5057382;28;19925;-76
2022/08/27 04:03:19;;;;;;;;;;;;;;;;;;5073282;28;19924;-75
2022/08/27 04:05:45;;;;;;;;;;;;;;;;;;5072966;28;20385;-76
2022/08/27 04:08:12;;;;;;;;;;;;;;;;;;5072681;28;20342;-75
2022/08/27 04:10:39;;;;;;;;;;;;;;;;;;5071944;28;20310;-75
2022/08/27 04:13:05;;;;;;;;;;;;;;;;;;5078037;28;19924;-75
2022/08/27 04:15:32;;;;;;;;;;;;;;;;;;5079048;28;19928;-75
2022/08/27 04:18:00;;;;;;;;;;;;;;;;;;5078117;28;19975;-76
2022/08/27 04:20:27;;;;;;;;;;;;;;;;;;5077133;28;20016;-75
2022/08/27 04:22:53;;;;;;;;;;;;;;;;;;5076407;28;20354;-75
2022/08/27 04:25:20;;;;;;;;;;;;;;;;;;5078964;28;19960;-74
2022/08/27 04:27:47;;;;;;;;;;;;;;;;;;5080578;28;20111;-75
2022/08/27 04:30:15;;;;;;;;;;;;;;;;;;5079425;28;19939;-75
2022/08/27 04:32:42;;;;;;;;;;;;;;;;;;5079617;28;19924;-75
2022/08/27 04:35:11;;;;;;;;;;;;;;;;;;5078429;28;19999;-74
2022/08/27 04:37:37;;;;;;;;;;;;;;;;;;5077025;28;19939;-74
2022/08/27 04:40:04;;;;;;;;;;;;;;;;;;5076788;28;19948;-74
2022/08/27 04:42:31;;;;;;;;;;;;;;;;;;5077310;28;20270;-75
2022/08/27 04:44:57;;;;;;;;;;;;;;;;;;5076588;28;19935;-75
2022/08/27 04:47:24;;;;;;;;;;;;;;;;;;5077163;28;19988;-75
2022/08/27 04:49:50;;;;;;;;;;;;;;;;;;5076551;28;20012;-74
2022/08/27 04:52:18;;;;;;;;;;;;;;;;;;5075879;28;19935;-75
2022/08/27 04:54:45;;;;;;;;;;;;;;;;;;5076628;28;19982;-74
2022/08/27 04:57:11;;;;;;;;;;;;;;;;;;5076035;28;19972;-74
2022/08/27 04:59:38;;;;;;;;;;;;;;;;;;5074852;28;20387;-74
2022/08/27 05:02:07;;;;;;;;;;;;;;;;;;5060841;28;19925;-74
2022/08/27 05:04:35;;;;;;;;;;;;;;;;;;5054356;28;19971;-74
2022/08/27 05:07:01;;;;;;;;;;;;;;;;;;5054654;28;19983;-75
2022/08/27 05:09:29;;;;;;;;;;;;;;;;;;5054002;28;20358;-74
2022/08/27 05:11:55;;;;;;;;;;;;;;;;;;5054090;28;20015;-74
2022/08/27 05:14:24;;;;;;;;;;;;;;;;;;5054079;28;19972;-74
2022/08/27 05:16:50;;;;;;;;;;;;;;;;;;5054663;28;19925;-74
2022/08/27 05:19:17;;;;;;;;;;;;;;;;;;5054889;28;19976;-74
2022/08/27 05:21:45;;;;;;;;;;;;;;;;;;5053980;28;20024;-74
2022/08/27 05:24:12;;;;;;;;;;;;;;;;;;5054556;28;19931;-75
2022/08/27 05:26:40;;;;;;;;;;;;;;;;;;5054136;28;19983;-76
2022/08/27 05:29:06;;;;;;;;;;;;;;;;;;5053862;28;20015;-74
2022/08/27 05:31:33;;;;;;;;;;;;;;;;;;5053871;28;19963;-76
2022/08/27 05:34:00;;;;;;;;;;;;;;;;;;5053866;28;19964;-74
2022/08/27 05:36:28;;;;;;;;;;;;;;;;;;5053608;28;19925;-73
2022/08/27 05:38:55;;;;;;;;;;;;;;;;;;5053791;28;19924;-74
2022/08/27 05:41:26;;;;;;;;;;;;;;;;;;5053101;28;20380;-75
2022/08/27 05:43:54;;;;;;;;;;;;;;;;;;5053489;28;19939;-74
2022/08/27 05:46:22;;;;;;;;;;;;;;;;;;5053559;28;19975;-75
2022/08/27 05:48:49;;;;;;;;;;;;;;;;;;5053494;28;19976;-75
2022/08/27 05:51:16;;;;;;;;;;;;;;;;;;5053507;28;20011;-74
2022/08/27 05:53:43;;;;;;;;;;;;;;;;;;5053363;28;20008;-74
2022/08/27 05:56:13;;;;;;;;;;;;;;;;;;5053185;28;19924;-74
2022/08/27 06:01:25;;;;;;;;;;;;;;;;;;5060842;28;19978;-74
2022/08/27 06:03:53;;;;;;;;;;;;;;;;;;5072973;28;20011;-74
2022/08/27 06:06:21;;;;;;;;;;;;;;;;;;5072720;28;19968;-74
2022/08/27 06:08:48;;;;;;;;;;;;;;;;;;5072808;28;19974;-74
2022/08/27 06:11:14;;;;;;;;;;;;;;;;;;5072611;28;20015;-75
2022/08/27 06:13:41;;;;;;;;;;;;;;;;;;5073194;28;19946;-76
2022/08/27 06:16:08;;;;;;;;;;;;;;;;;;5072718;28;20015;-76
2022/08/27 06:18:38;;;;;;;;;;;;;;;;;;5073352;28;20370;-75
2022/08/27 06:21:04;;;;;;;;;;;;;;;;;;5072733;28;20295;-75
2022/08/27 06:23:31;;;;;;;;;;;;;;;;;;5073673;28;20007;-75
2022/08/27 06:25:58;;;;;;;;;;;;;;;;;;5073578;28;20456;-76
2022/08/27 06:28:28;;;;;;;;;;;;;;;;;;5073032;28;19976;-75
2022/08/27 06:31:01;;;;;;;;;;;;;;;;;;5072399;28;19924;-75
2022/08/27 06:33:29;;;;;;;;;;;;;;;;;;5073301;28;19975;-76
2022/08/27 06:35:58;;;;;;;;;;;;;;;;;;5071889;28;19928;-76
2022/08/27 06:38:25;;;;;;;;;;;;;;;;;;5073219;28;19931;-74
2022/08/27 06:40:52;;;;;;;;;;;;;;;;;;5072395;28;19928;-74
2022/08/27 06:43:18;;;;;;;;;;;;;;;;;;5072600;28;19928;-74
2022/08/27 06:45:45;;;;;;;;;;;;;;;;;;5072293;28;19959;-74
2022/08/27 06:48:11;;;;;;;;;;;;;;;;;;5072444;28;19950;-74
2022/08/27 06:50:39;;;;;;;;;;;;;;;;;;5071889;28;20027;-75
2022/08/27 06:53:07;;;;;;;;;;;;;;;;;;5072595;28;20387;-75
2022/08/27 06:55:40;;;;;;;;;;;;;;;;;;5072182;28;19978;-75
2022/08/27 06:58:07;;;;;;;;;;;;;;;;;;5072460;28;20015;-75
2022/08/27 07:00:33;;;;;;;;;;;;;;;;;;5070724;28;20022;-74
2022/08/27 07:03:00;;;;;;;;;;;;;;;;;;5052101;28;19931;-75
2022/08/27 07:05:26;;;;;;;;;;;;;;;;;;5052476;28;20028;-75
2022/08/27 07:07:53;;;;;;;;;;;;;;;;;;5052113;28;19968;-75
2022/08/27 07:10:21;;;;;;;;;;;;;;;;;;5051939;28;19932;-75
2022/08/27 07:12:48;;;;;;;;;;;;;;;;;;5051985;28;19971;-75
2022/08/27 07:15:14;;;;;;;;;;;;;;;;;;5052529;28;19968;-75
2022/08/27 07:17:43;;;;;;;;;;;;;;;;;;5052032;28;20019;-75
2022/08/27 07:20:10;;;;;;;;;;;;;;;;;;5052310;28;19925;-74
2022/08/27 07:22:36;;;;;;;;;;;;;;;;;;5052241;28;20352;-74
2022/08/27 07:25:03;;;;;;;;;;;;;;;;;;5052237;28;20019;-75
2022/08/27 07:27:31;;;;;;;;;;;;;;;;;;5051889;28;19947;-76
2022/08/27 07:29:58;;;;;;;;;;;;;;;;;;5051850;28;19925;-75
2022/08/27 07:32:24;;;;;;;;;;;;;;;;;;5051809;28;19928;-75
2022/08/27 07:34:51;;;;;;;;;;;;;;;;;;5052102;28;19925;-75
2022/08/27 07:37:17;;;;;;;;;;;;;;;;;;5051992;28;19925;-75
2022/08/27 07:39:43;;;;;;;;;;;;;;;;;;5051643;28;19932;-75
2022/08/27 07:44:57;;;;;;;;;;;;;;;;;;5052516;28;19933;-76
2022/08/27 07:47:23;;;;;;;;;;;;;;;;;;5056233;28;19931;-74
2022/08/27 07:49:50;;;;;;;;;;;;;;;;;;5056039;28;19931;-75
2022/08/27 07:52:17;;;;;;;;;;;;;;;;;;5055740;28;19931;-74
2022/08/27 07:54:43;;;;;;;;;;;;;;;;;;5055546;28;20298;-75
2022/08/27 07:57:10;;;;;;;;;;;;;;;;;;5055351;28;19925;-75
2022/08/27 07:59:36;;;;;;;;;;;;;;;;;;5054977;28;19931;-75
2022/08/27 08:02:04;;;;;;;;;;;;;;;;;;5068623;28;20019;-75
2022/08/27 08:04:31;;;;;;;;;;;;;;;;;;5075434;28;19931;-75
2022/08/27 08:06:57;;;;;;;;;;;;;;;;;;5075542;28;19924;-75
2022/08/27 08:09:24;;;;;;;;;;;;;;;;;;5075068;28;19971;-75
2022/08/27 08:11:51;;;;;;;;;;;;;;;;;;5075256;28;20003;-74
2022/08/27 08:14:17;;;;;;;;;;;;;;;;;;5075532;28;19972;-75
2022/08/27 08:16:44;;;;;;;;;;;;;;;;;;5075008;28;19964;-75
2022/08/27 08:19:12;;;;;;;;;;;;;;;;;;5075402;28;19971;-75
2022/08/27 08:21:39;;;;;;;;;;;;;;;;;;5075172;28;19935;-75
2022/08/27 08:24:06;;;;;;;;;;;;;;;;;;5075782;28;19964;-75
2022/08/27 08:26:32;;;;;;;;;;;;;;;;;;5074944;28;19928;-75
2022/08/27 08:29:03;;;;;;;;;;;;;;;;;;5075339;28;19960;-75
2022/08/27 08:31:29;;;;;;;;;;;;;;;;;;5075290;28;20011;-75
2022/08/27 08:33:56;;;;;;;;;;;;;;;;;;5075307;28;20395;-75
2022/08/27 08:36:24;;;;;;;;;;;;;;;;;;5075735;28;19975;-75
2022/08/27 08:38:50;;;;;;;;;;;;;;;;;;5074973;28;20404;-75
2022/08/27 08:41:30;;;;;;;;;;;;;;;;;;5075011;28;20506;-74
2022/08/27 08:43:57;;;;;;;;;;;;;;;;;;5075247;28;19979;-75
2022/08/27 08:46:27;;;;;;;;;;;;;;;;;;5075050;28;20019;-74
2022/08/27 08:48:56;;;;;;;;;;;;;;;;;;5075131;28;19959;-74
2022/08/27 08:51:30;;;;;;;;;;;;;;;;;;5075180;28;19960;-74
2022/08/27 08:53:58;;;;;;;;;;;;;;;;;;5075030;28;19924;-74
2022/08/27 08:56:28;;;;;;;;;;;;;;;;;;5074949;28;20185;-74
2022/08/27 08:58:57;;;;;;;;;;;;;;;;;;5074352;28;20415;-74
2022/08/27 09:01:24;;;;;;;;;;;;;;;;;;5066236;28;19979;-76
2022/08/27 09:03:52;;;;;;;;;;;;;;;;;;5054777;28;19928;-76
2022/08/27 09:06:21;;;;;;;;;;;;;;;;;;5054817;28;19925;-76
2022/08/27 09:08:49;;;;;;;;;;;;;;;;;;5054612;28;20015;-74
2022/08/27 09:11:19;;;;;;;;;;;;;;;;;;5055080;28;19964;-75
2022/08/27 09:13:48;;;;;;;;;;;;;;;;;;5054604;28;19925;-75
2022/08/27 09:16:14;;;;;;;;;;;;;;;;;;5054259;28;20107;-76
2022/08/27 09:18:43;;;;;;;;;;;;;;;;;;5053988;28;19955;-75
2022/08/27 09:21:16;;;;;;;;;;;;;;;;;;5054042;28;19925;-75
2022/08/27 09:23:47;;;;;;;;;;;;;;;;;;5053678;28;19925;-75
2022/08/27 09:26:19;;;;;;;;;;;;;;;;;;5055383;28;19947;-75
2022/08/27 09:31:29;;;;;;;;;;;;;;;;;;5056393;28;20306;-76
2022/08/27 09:33:56;;;;;;;;;;;;;;;;;;5055601;28;20422;-77
2022/08/27 09:36:23;;;;;;;;;;;;;;;;;;5056067;28;19924;-77
2022/08/27 09:38:52;;;;;;;;;;;;;;;;;;5056425;28;19972;-75
2022/08/27 09:41:22;;;;;;;;;;;;;;;;;;5056449;28;19924;-74
2022/08/27 09:43:56;;;;;;;;;;;;;;;;;;5056317;28;19971;-74
2022/08/27 09:46:24;;;;;;;;;;;;;;;;;;5056024;28;19924;-74
2022/08/27 09:48:51;;;;;;;;;;;;;;;;;;5054423;28;19929;-74
2022/08/27 09:51:20;;;;;;;;;;;;;;;;;;5054541;28;19925;-75
2022/08/27 09:53:49;;;;;;;;;;;;;;;;;;5053531;28;20427;-75
2022/08/27 09:56:24;;;;;;;;;;;;;;;;;;5054226;28;19944;-75
2022/08/27 09:58:52;;;;;;;;;;;;;;;;;;5053505;28;19987;-76
2022/08/27 10:01:20;;;;;;;;;;;;;;;;;;5061244;28;19929;-76
2022/08/27 10:03:46;;;;;;;;;;;;;;;;;;5073974;28;19978;-76
2022/08/27 10:06:13;;;;;;;;;;;;;;;;;;5073439;28;19964;-76
2022/08/27 10:08:41;;;;;;;;;;;;;;;;;;5073371;28;19978;-75
2022/08/27 10:11:11;;;;;;;;;;;;;;;;;;5073272;28;19932;-76
2022/08/27 10:13:45;;;;;;;;;;;;;;;;;;5073327;28;20015;-76
2022/08/27 10:16:29;;;;;;;;;;;;;;;;;;5073231;28;19928;-76
2022/08/27 10:19:02;;;;;;;;;;;;;;;;;;5072818;28;20042;-76
2022/08/27 10:21:32;;;;;;;;;;;;;;;;;;5074118;28;20011;-76
2022/08/27 10:24:09;;;;;;;;;;;;;;;;;;5073248;28;19931;-76
2022/08/27 10:26:40;;;;;;;;;;;;;;;;;;5072618;28;19925;-77
2022/08/27 10:29:12;;;;;;;;;;;;;;;;;;5072279;28;20395;-76
2022/08/27 10:31:44;;;;;;;;;;;;;;;;;;5072767;28;19924;-76
2022/08/27 10:34:19;;;;;;;;;;;;;;;;;;5072954;28;20036;-76
2022/08/27 10:36:52;;;;;;;;;;;;;;;;;;5073042;28;20046;-76
2022/08/27 10:39:22;;;;;;;;;;;;;;;;;;5072483;28;20020;-76
2022/08/27 10:41:54;;;;;;;;;;;;;;;;;;5073019;28;19925;-76
2022/08/27 10:44:42;;;;;;;;;;;;;;;;;;5072876;28;20276;-76
2022/08/27 10:47:23;;;;;;;;;;;;;;;;;;5069326;28;20449;-74
2022/08/27 10:49:52;;;;;;;;;;;;;;;;;;5072328;28;19931;-76
2022/08/27 10:52:21;;;;;;;;;;;;;;;;;;5072793;28;20086;-76
2022/08/27 10:54:50;;;;;;;;;;;;;;;;;;5072572;28;20360;-76
2022/08/27 10:57:22;;;;;;;;;;;;;;;;;;5072760;28;19972;-76
2022/08/27 10:59:51;;;;;;;;;;;;;;;;;;5072729;28;19924;-76
2022/08/27 11:02:27;;;;;;;;;;;;;;;;;;5057247;28;19924;-76
2022/08/27 11:04:57;;;;;;;;;;;;;;;;;;5052597;28;20417;-76
2022/08/27 11:07:25;;;;;;;;;;;;;;;;;;5053026;28;19964;-76
2022/08/27 11:09:54;;;;;;;;;;;;;;;;;;5052426;28;20353;-76
2022/08/27 11:12:25;;;;;;;;;;;;;;;;;;5052527;28;20402;-75
2022/08/27 11:14:54;;;;;;;;;;;;;;;;;;5052880;28;20066;-75
2022/08/27 11:17:24;;;;;;;;;;;;;;;;;;5051900;28;19979;-75
2022/08/27 11:19:53;;;;;;;;;;;;;;;;;;5052228;28;19925;-75
2022/08/27 11:22:22;;;;;;;;;;;;;;;;;;5056243;28;19925;-75
2022/08/27 11:24:53;;;;;;;;;;;;;;;;;;5056376;28;20363;-75
2022/08/27 11:27:23;;;;;;;;;;;;;;;;;;5056193;28;19971;-75
2022/08/27 11:29:52;;;;;;;;;;;;;;;;;;5056127;28;20389;-75
2022/08/27 11:32:21;;;;;;;;;;;;;;;;;;5056505;28;20023;-76
2022/08/27 11:34:51;;;;;;;;;;;;;;;;;;5056444;28;19931;-74
2022/08/27 11:37:33;;;;;;;;;;;;;;;;;;5056258;28;19972;-74
2022/08/27 11:40:17;;;;;;;;;;;;;;;;;;5056072;28;20035;-75
2022/08/27 11:42:46;;;;;;;;;;;;;;;;;;5056499;28;19925;-76
2022/08/27 11:45:16;;;;;;;;;;;;;;;;;;5055930;28;19978;-75
2022/08/27 11:47:51;;;;;;;;;;;;;;;;;;5056049;28;19936;-75
2022/08/27 11:50:20;;;;;;;;;;;;;;;;;;5055488;28;19928;-75
2022/08/27 11:52:54;;;;;;;;;;;;;;;;;;5055794;28;19925;-75
2022/08/27 11:55:24;;;;;;;;;;;;;;;;;;5056268;28;20008;-76
2022/08/27 11:58:04;;;;;;;;;;;;;;;;;;5055759;28;20019;-75
2022/08/27 12:00:32;;;;;;;;;;;;;;;;;;5055809;28;19925;-75
2022/08/27 12:02:59;;;;;;;;;;;;;;;;;;5076111;28;19925;-75
2022/08/27 12:05:36;;;;;;;;;;;;;;;;;;5075299;28;19971;-76
2022/08/27 12:08:12;;;;;;;;;;;;;;;;;;5075726;28;19929;-76
2022/08/27 12:10:45;;;;;;;;;;;;;;;;;;5075338;28;20358;-75
2022/08/27 12:13:16;;;;;;;;;;;;;;;;;;5075091;28;20023;-74
2022/08/27 12:15:50;;;;;;;;;;;;;;;;;;5075326;28;19933;-74
2022/08/27 12:20:57;;;;;;;;;;;;;;;;;;5072461;28;20029;-79
2022/08/27 12:23:42;;;;;;;;;;;;;;;;;;5078759;28;19975;-77
2022/08/27 12:26:29;;;;;;;;;;;;;;;;;;5079487;28;19924;-79
2022/08/27 12:29:16;;;;;;;;;;;;;;;;;;5078935;28;19924;-79
2022/08/27 12:31:44;;;;;;;;;;;;;;;;;;5076043;28;19978;-77
2022/08/27 12:34:14;;;;;;;;;;;;;;;;;;5076524;28;19971;-78
2022/08/27 12:36:42;;;;;;;;;;;;;;;;;;5077747;28;19931;-77
2022/08/27 12:39:14;;;;;;;;;;;;;;;;;;5076716;28;20015;-78
2022/08/27 12:41:44;;;;;;;;;;;;;;;;;;5077640;28;19924;-76
2022/08/27 12:44:11;;;;;;;;;;;;;;;;;;5079252;28;19971;-81
2022/08/27 12:46:44;;;;;;;;;;;;;;;;;;5079507;28;19978;-79
2022/08/27 12:49:11;;;;;;;;;;;;;;;;;;5079330;28;20012;-79
2022/08/27 12:51:38;;;;;;;;;;;;;;;;;;5076974;28;19928;-77
2022/08/27 12:54:11;;;;;;;;;;;;;;;;;;5076635;28;20011;-79
2022/08/27 12:56:49;;;;;;;;;;;;;;;;;;5077792;28;19924;-78
2022/08/27 12:59:29;;;;;;;;;;;;;;;;;;5076079;28;19924;-79
2022/08/27 13:02:00;;;;;;;;;;;;;;;;;;5076848;28;20015;-78
2022/08/27 13:04:28;;;;;;;;;;;;;;;;;;5077151;28;20002;-79
2022/08/27 13:06:54;;;;;;;;;;;;;;;;;;5077751;28;20027;-79
2022/08/27 13:09:27;;;;;;;;;;;;;;;;;;5078351;28;19975;-79
2022/08/27 13:11:55;;;;;;;;;;;;;;;;;;5076624;28;19925;-80
2022/08/27 13:14:23;;;;;;;;;;;;;;;;;;5076971;28;20093;-77
2022/08/27 13:16:51;;;;;;;;;;;;;;;;;;5075622;28;20019;-78
2022/08/27 13:19:19;;;;;;;;;;;;;;;;;;5074083;28;20379;-77
2022/08/27 13:21:48;;;;;;;;;;;;;;;;;;5074477;28;19924;-78
2022/08/27 13:24:19;;;;;;;;;;;;;;;;;;5074879;28;20350;-79
2022/08/27 13:26:49;;;;;;;;;;;;;;;;;;5075693;28;19967;-80
2022/08/27 13:29:16;;;;;;;;;;;;;;;;;;5078121;28;19950;-79
2022/08/27 13:31:42;;;;;;;;;;;;;;;;;;5077157;28;19925;-79
2022/08/27 13:34:11;;;;;;;;;;;;;;;;;;5077223;28;19966;-79
2022/08/27 13:36:51;;;;;;;;;;;;;;;;;;5077095;28;19970;-77
2022/08/27 13:39:17;;;;;;;;;;;;;;;;;;5076557;28;19935;-77
2022/08/27 13:41:47;;;;;;;;;;;;;;;;;;5074136;28;20451;-78
2022/08/27 13:44:18;;;;;;;;;;;;;;;;;;5074489;28;20335;-78
2022/08/27 13:46:46;;;;;;;;;;;;;;;;;;5074788;28;19924;-78
2022/08/27 13:49:15;;;;;;;;;;;;;;;;;;5074133;28;19925;-77
2022/08/27 13:51:44;;;;;;;;;;;;;;;;;;5073121;28;20373;-76
2022/08/27 13:54:14;;;;;;;;;;;;;;;;;;5073566;28;19924;-76
2022/08/27 13:56:54;;;;;;;;;;;;;;;;;;5074497;28;19947;-76
2022/08/27 13:59:24;;;;;;;;;;;;;;;;;;5073487;28;19924;-78
2022/08/27 14:01:54;;;;;;;;;;;;;;;;;;5088194;28;19931;-80
2022/08/27 14:04:22;;;;;;;;;;;;;;;;;;5097151;28;20431;-79
2022/08/27 14:06:49;;;;;;;;;;;;;;;;;;5097485;28;19946;-79
2022/08/27 14:09:18;;;;;;;;;;;;;;;;;;5094395;28;20011;-77
2022/08/27 14:11:45;;;;;;;;;;;;;;;;;;5094629;28;20011;-77
2022/08/27 14:14:12;;;;;;;;;;;;;;;;;;5093981;28;20449;-77
2022/08/27 14:16:40;;;;;;;;;;;;;;;;;;5093731;28;19928;-77
2022/08/27 14:19:08;;;;;;;;;;;;;;;;;;5094774;28;20020;-77
2022/08/27 14:21:35;;;;;;;;;;;;;;;;;;5094610;28;19924;-76
2022/08/27 14:24:02;;;;;;;;;;;;;;;;;;5094667;28;20267;-76
2022/08/27 14:26:28;;;;;;;;;;;;;;;;;;5094120;28;20649;-76
2022/08/27 14:28:55;;;;;;;;;;;;;;;;;;5093402;28;20014;-77
2022/08/27 14:31:22;;;;;;;;;;;;;;;;;;5093344;28;20011;-76
2022/08/27 14:33:51;;;;;;;;;;;;;;;;;;5093722;28;19967;-79
2022/08/27 14:36:18;;;;;;;;;;;;;;;;;;5093073;28;20420;-77
2022/08/27 14:38:45;;;;;;;;;;;;;;;;;;5093239;28;19924;-76
2022/08/27 14:41:12;;;;;;;;;;;;;;;;;;5092849;28;20009;-76
2022/08/27 14:43:39;;;;;;;;;;;;;;;;;;5092769;28;19950;-76
2022/08/27 14:46:07;;;;;;;;;;;;;;;;;;5092733;28;19987;-77
2022/08/27 14:48:34;;;;;;;;;;;;;;;;;;5092650;28;20404;-79
2022/08/27 14:51:05;;;;;;;;;;;;;;;;;;5092730;28;19928;-77
2022/08/27 14:53:32;;;;;;;;;;;;;;;;;;5092865;28;19982;-78
2022/08/27 14:56:00;;;;;;;;;;;;;;;;;;5092292;28;19936;-77
2022/08/27 14:58:28;;;;;;;;;;;;;;;;;;5092742;28;19931;-78
2022/08/27 15:00:57;;;;;;;;;;;;;;;;;;5090224;28;19931;-78
2022/08/27 15:03:25;;;;;;;;;;;;;;;;;;5081796;28;19921;-80
2022/08/27 15:05:53;;;;;;;;;;;;;;;;;;5081403;28;19924;-80
2022/08/27 15:08:22;;;;;;;;;;;;;;;;;;5080963;28;20011;-79
2022/08/27 15:10:48;;;;;;;;;;;;;;;;;;5082625;28;19931;-78
2022/08/27 15:13:15;;;;;;;;;;;;;;;;;;5085859;28;19964;-79
2022/08/27 15:15:42;;;;;;;;;;;;;;;;;;5086869;28;19931;-79
2022/08/27 15:18:08;;;;;;;;;;;;;;;;;;5088184;28;19997;-79
2022/08/27 15:20:35;;;;;;;;;;;;;;;;;;5085785;28;19964;-80
2022/08/27 15:23:01;;;;;;;;;;;;;;;;;;5082448;28;19934;-80
2022/08/27 15:25:29;;;;;;;;;;;;;;;;;;5081090;28;19987;-79
2022/08/27 15:27:56;;;;;;;;;;;;;;;;;;5079667;28;19925;-80
2022/08/27 15:30:23;;;;;;;;;;;;;;;;;;5080519;28;19967;-79
2022/08/27 15:32:50;;;;;;;;;;;;;;;;;;5079790;28;19925;-78
2022/08/27 15:35:17;;;;;;;;;;;;;;;;;;5076470;28;19983;-76
2022/08/27 15:37:47;;;;;;;;;;;;;;;;;;5079677;28;19924;-78
2022/08/27 15:40:14;;;;;;;;;;;;;;;;;;5074417;28;19972;-78
2022/08/27 15:42:42;;;;;;;;;;;;;;;;;;5077787;28;20011;-78
2022/08/27 15:45:10;;;;;;;;;;;;;;;;;;5081040;28;20018;-80
2022/08/27 15:47:37;;;;;;;;;;;;;;;;;;5078657;28;20375;-80
2022/08/27 15:50:05;;;;;;;;;;;;;;;;;;5074823;28;19925;-77
2022/08/27 15:52:31;;;;;;;;;;;;;;;;;;5074089;28;20363;-77
2022/08/27 15:55:00;;;;;;;;;;;;;;;;;;5075047;28;19931;-78
2022/08/27 15:57:27;;;;;;;;;;;;;;;;;;5079439;28;20444;-80
2022/08/27 15:59:55;;;;;;;;;;;;;;;;;;5079703;28;19932;-80
2022/08/27 16:02:24;;;;;;;;;;;;;;;;;;5093015;28;20274;-77
2022/08/27 16:04:50;;;;;;;;;;;;;;;;;;5097060;28;19947;-78
2022/08/27 16:07:17;;;;;;;;;;;;;;;;;;5097308;28;19924;-78
2022/08/27 16:09:43;;;;;;;;;;;;;;;;;;5098096;28;20033;-77
2022/08/27 16:12:10;;;;;;;;;;;;;;;;;;5099589;28;19970;-79
2022/08/27 16:14:36;;;;;;;;;;;;;;;;;;5100522;28;20027;-79
2022/08/27 16:17:04;;;;;;;;;;;;;;;;;;5104693;28;19970;-79
2022/08/27 16:19:31;;;;;;;;;;;;;;;;;;5102709;28;19970;-78
2022/08/27 16:21:57;;;;;;;;;;;;;;;;;;5103343;28;20013;-81
2022/08/27 16:24:24;;;;;;;;;;;;;;;;;;5102876;28;20006;-80
2022/08/27 16:26:51;;;;;;;;;;;;;;;;;;5101029;28;19970;-80
2022/08/27 16:29:18;;;;;;;;;;;;;;;;;;5101371;28;19966;-78
2022/08/27 16:31:44;;;;;;;;;;;;;;;;;;5102068;28;19924;-78
2022/08/27 16:34:14;;;;;;;;;;;;;;;;;;5098976;28;20020;-78
2022/08/27 16:36:41;;;;;;;;;;;;;;;;;;5099114;28;19967;-77
2022/08/27 16:39:07;;;;;;;;;;;;;;;;;;5100879;28;20402;-78
2022/08/27 16:41:34;;;;;;;;;;;;;;;;;;5099590;28;20388;-76
2022/08/27 16:44:00;;;;;;;;;;;;;;;;;;5097595;28;19978;-79
2022/08/27 16:46:27;;;;;;;;;;;;;;;;;;5098813;28;20039;-78
2022/08/27 16:51:41;;;;;;;;;;;;;;;;;;5097442;28;19958;-78
2022/08/27 16:54:09;;;;;;;;;;;;;;;;;;5095100;28;19977;-78
2022/08/27 16:56:36;;;;;;;;;;;;;;;;;;5095350;28;19924;-76
2022/08/27 16:59:03;;;;;;;;;;;;;;;;;;5095167;28;19928;-77
2022/08/27 17:01:30;;;;;;;;;;;;;;;;;;5095702;28;19928;-76
2022/08/27 17:03:57;;;;;;;;;;;;;;;;;;5095584;28;19924;-77
2022/08/27 17:06:24;;;;;;;;;;;;;;;;;;5095285;28;19924;-77